Terminal Aerodrome Forecast
Issued by NWS

Home | Current Version | Previous Version | Text Only | Print | Product List | Glossary On
Versions: 1 2 3 4 5 6 7 8 9 10 11 12 13 14 15 16 17 18 19 20 21 22 23 24 25 26
000
FTUS45 KABQ 142331
TAFFMN
TAF
KFMN 142331Z 1500/1524 26007KT P6SM VCSH SCT035 BKN050
     FM150400 26008KT P6SM VCSH BKN025
     FM150900 25007KT 3SM -RASN BR BKN025
     FM151500 27013KT 1SM -SN BR BKN012
     FM152100 30015KT P6SM VCSH BKN021=

USA.gov is the U.S. government's official web portal to all federal, state and local government web resources and services.